Time;durP1;ratioP1;P1;durP2;ratioP2;P2;SDS_P1;SDS_P2;PMS_P1;PMS_P2;Temp;Humidity;BMP_temperature;BMP_pressure;BME280_temperature;BME280_humidity;BME280_pressure;Samples;Min_cycle;Max_cycle;Signal;HPM_P1;HPM_P2
2023/09/06 00:00:42;;;;;;;3.55;3.08;;;;;;;23.54;49.29;100588.47;5070111;28;20925;-82
2023/09/06 00:03:08;;;;;;;3.38;3.00;;;;;;;23.51;49.92;100587.16;5070378;28;20791;-82
2023/09/06 00:05:33;;;;;;;3.93;3.00;;;;;;;23.50;49.77;100591.06;5070303;28;20796;-82
2023/09/06 00:07:59;;;;;;;3.55;3.22;;;;;;;23.47;49.64;100586.19;5070293;28;20396;-82
2023/09/06 00:10:25;;;;;;;3.03;2.83;;;;;;;23.42;49.75;100593.84;5070563;28;20438;-82
2023/09/06 00:12:50;;;;;;;3.20;2.88;;;;;;;23.40;49.89;100587.78;5067079;28;20419;-81
2023/09/06 00:15:18;;;;;;;4.07;3.40;;;;;;;23.38;49.95;100588.09;5070133;28;21176;-81
2023/09/06 00:17:43;;;;;;;3.05;2.83;;;;;;;23.37;49.93;100593.97;5078020;28;20473;-82
2023/09/06 00:20:21;;;;;;;2.90;2.70;;;;;;;23.35;50.14;100587.97;5069851;28;20485;-81
2023/09/06 00:22:57;;;;;;;3.25;2.97;;;;;;;23.35;50.19;100594.28;5070657;28;20528;-81
2023/09/06 00:25:24;;;;;;;3.80;2.80;;;;;;;23.32;50.30;100600.47;5065941;28;20428;-81
2023/09/06 00:27:50;;;;;;;3.63;3.00;;;;;;;23.28;50.52;100603.09;5071428;28;20754;-81
2023/09/06 00:30:18;;;;;;;3.17;2.97;;;;;;;23.25;50.39;100600.97;5064903;28;20397;-81
2023/09/06 00:32:43;;;;;;;3.30;3.00;;;;;;;23.16;50.62;100600.16;5071363;28;20403;-81
2023/09/06 00:35:09;;;;;;;6.00;3.10;;;;;;;23.16;50.76;100594.63;5070930;28;20400;-81
2023/09/06 00:37:39;;;;;;;3.13;2.80;;;;;;;23.15;50.54;100594.97;5070892;28;20426;-81
2023/09/06 00:40:18;;;;;;;3.00;2.80;;;;;;;23.13;50.71;100592.53;5071170;28;20392;-81
2023/09/06 00:42:52;;;;;;;3.50;3.20;;;;;;;23.11;50.87;100597.56;5071159;28;20513;-81
2023/09/06 00:45:21;;;;;;;6.33;3.17;;;;;;;23.04;50.55;100586.19;5070291;28;20453;-81
2023/09/06 00:47:51;;;;;;;5.10;3.08;;;;;;;23.02;50.80;100587.66;5070868;28;20434;-82
2023/09/06 00:50:17;;;;;;;4.30;3.20;;;;;;;22.99;50.90;100582.75;5071103;28;20431;-82
2023/09/06 00:52:43;;;;;;;7.35;2.90;;;;;;;22.95;50.78;100581.81;5070635;28;20413;-81
2023/09/06 00:55:10;;;;;;;3.83;3.30;;;;;;;22.91;50.94;100587.16;5070524;28;20400;-81
2023/09/06 00:57:35;;;;;;;3.45;3.15;;;;;;;;;;5069740;28;20494;-81
2023/09/06 01:00:05;;;;;;;3.27;2.97;;;;;;;22.86;51.02;100589.25;5070664;28;21017;-81
2023/09/06 01:02:30;;;;;;;3.78;3.47;;;;;;;22.80;50.96;100585.84;5069258;28;20400;-81
2023/09/06 01:04:55;;;;;;;4.83;3.00;;;;;;;22.77;50.86;100577.38;5068384;28;20949;-81
2023/09/06 01:07:25;;;;;;;4.30;3.40;;;;;;;22.73;51.31;100583.56;5070664;28;20408;-81
2023/09/06 01:09:51;;;;;;;2.97;2.77;;;;;;;22.81;51.06;100581.94;5070644;28;20400;-81
2023/09/06 01:12:16;;;;;;;4.65;3.40;;;;;;;22.78;50.99;100581.78;5070525;28;20391;-81
2023/09/06 01:14:42;;;;;;;3.37;3.07;;;;;;;22.70;51.43;100586.13;5070666;28;20575;-81
2023/09/06 01:17:09;;;;;;;3.40;3.10;;;;;;;22.63;51.63;100575.53;5070534;28;20446;-81
2023/09/06 01:19:39;;;;;;;3.60;3.30;;;;;;;22.64;51.36;100577.16;5070390;28;20946;-81
2023/09/06 01:22:22;;;;;;;4.43;3.42;;;;;;;22.63;51.55;100571.94;5070804;28;20449;-81
2023/09/06 01:24:49;;;;;;;3.17;2.78;;;;;;;22.60;51.59;100572.59;5070482;28;20461;-80
2023/09/06 01:27:14;;;;;;;3.20;2.90;;;;;;;22.57;51.99;100568.53;5070737;28;20867;-81
2023/09/06 01:29:39;;;;;;;3.27;3.07;;;;;;;22.54;51.94;100566.44;5070462;28;20441;-81
2023/09/06 01:32:05;;;;;;;3.50;3.30;;;;;;;22.51;51.98;100564.31;5082163;28;20907;-81
2023/09/06 01:34:31;;;;;;;3.47;3.15;;;;;;;22.46;52.00;100561.69;5070360;28;20976;-81
2023/09/06 01:36:56;;;;;;;4.47;3.20;;;;;;;22.41;51.97;100567.38;5066461;28;20925;-81
2023/09/06 01:39:22;;;;;;;5.63;3.20;;;;;;;22.38;52.26;100558.91;5070469;28;20408;-80
2023/09/06 01:41:47;;;;;;;3.53;3.25;;;;;;;22.31;52.22;100555.81;5070754;28;20400;-81
2023/09/06 01:44:14;;;;;;;4.20;3.37;;;;;;;22.28;52.46;100551.75;5070211;28;21249;-81
2023/09/06 01:46:40;;;;;;;3.40;3.10;;;;;;;22.27;52.48;100554.81;5070611;28;20490;-81
2023/09/06 01:49:05;;;;;;;5.10;3.38;;;;;;;22.28;52.64;100556.44;5068918;28;20481;-81
2023/09/06 01:51:31;;;;;;;4.20;3.60;;;;;;;22.29;52.45;100560.84;5068848;28;20392;-81
2023/09/06 01:53:56;;;;;;;4.07;3.50;;;;;;;22.26;52.48;100556.78;5065222;28;20968;-80
2023/09/06 01:56:22;;;;;;;3.83;3.28;;;;;;;22.24;52.37;100553.50;5070170;28;20491;-80
2023/09/06 01:58:47;;;;;;;4.77;4.03;;;;;;;22.19;52.58;100551.72;5070422;28;20387;-80
2023/09/06 02:01:12;;;;;;;4.00;3.40;;;;;;;22.17;52.65;100559.50;5069999;28;20402;-80
2023/09/06 02:03:38;;;;;;;3.83;3.47;;;;;;;22.17;52.60;100561.44;5070263;28;20404;-80
2023/09/06 02:06:04;;;;;;;3.83;3.53;;;;;;;22.12;52.64;100556.91;5070179;28;20392;-80
2023/09/06 02:08:29;;;;;;;3.63;3.33;;;;;;;22.08;52.73;100555.06;5070075;28;20400;-79
2023/09/06 02:10:55;;;;;;;3.97;3.67;;;;;;;22.05;52.82;100567.56;5068856;28;20717;-80
2023/09/06 02:13:20;;;;;;;3.60;3.30;;;;;;;22.05;52.90;100566.75;5069804;28;20539;-80
2023/09/06 02:15:45;;;;;;;3.97;3.60;;;;;;;22.03;52.80;100566.28;5069898;28;20956;-80
2023/09/06 02:18:15;;;;;;;4.00;3.63;;;;;;;21.96;52.77;100565.91;5070354;28;20404;-80
2023/09/06 02:20:44;;;;;;;6.78;3.50;;;;;;;21.88;52.89;100569.41;5070544;28;20486;-80
2023/09/06 02:23:09;;;;;;;3.47;3.17;;;;;;;21.83;53.10;100573.13;5073889;28;20413;-80
2023/09/06 02:25:34;;;;;;;3.80;3.00;;;;;;;21.79;53.29;100574.88;5073574;28;20883;-80
2023/09/06 02:28:04;;;;;;;4.07;3.33;;;;;;;21.76;53.29;100574.69;5072815;28;20403;-80
2023/09/06 02:30:30;;;;;;;4.13;3.50;;;;;;;21.74;53.41;100570.31;5085255;28;20910;-80
2023/09/06 02:32:56;;;;;;;4.40;4.03;;;;;;;21.71;53.71;100570.94;5073217;28;20762;-80
2023/09/06 02:35:21;;;;;;;3.83;3.53;;;;;;;21.67;53.47;100569.94;5073369;28;20402;-81
2023/09/06 02:37:47;;;;;;;6.17;3.40;;;;;;;21.64;53.75;100569.75;5071824;28;20406;-80
2023/09/06 02:40:15;;;;;;;3.95;3.50;;;;;;;21.57;53.81;100572.16;5072995;28;20411;-80
2023/09/06 02:42:41;;;;;;;3.78;3.47;;;;;;;21.53;53.76;100574.75;5073389;28;20407;-80
2023/09/06 02:45:09;;;;;;;3.63;3.33;;;;;;;21.53;53.97;100576.69;5065462;28;20397;-80
2023/09/06 02:47:37;;;;;;;4.00;3.65;;;;;;;21.50;54.04;100580.06;5072848;28;20542;-79
2023/09/06 02:50:06;;;;;;;6.78;3.92;;;;;;;21.47;54.05;100575.19;5070150;28;20434;-80
2023/09/06 02:52:35;;;;;;;3.97;3.67;;;;;;;21.45;53.97;100574.66;5072649;28;20449;-80
2023/09/06 02:55:04;;;;;;;4.80;4.27;;;;;;;21.39;54.00;100584.19;5073170;28;20434;-80
2023/09/06 02:57:31;;;;;;;3.97;3.60;;;;;;;21.36;54.14;100587.59;5072842;28;20453;-80
2023/09/06 02:59:57;;;;;;;4.47;3.53;;;;;;;21.33;54.57;100583.53;5071685;28;20915;-80
2023/09/06 03:02:22;;;;;;;4.60;3.77;;;;;;;21.32;54.53;100595.66;5070923;28;20396;-80
2023/09/06 03:04:54;;;;;;;4.95;3.83;;;;;;;21.31;54.51;100593.22;5072916;28;20404;-80
2023/09/06 03:07:20;;;;;;;4.97;3.83;;;;;;;21.28;54.69;100591.06;5071851;28;20894;-80
2023/09/06 03:09:45;;;;;;;4.80;3.67;;;;;;;21.23;54.50;100589.28;5071503;28;20395;-80
2023/09/06 03:12:14;;;;;;;3.80;3.50;;;;;;;21.19;54.53;100589.09;5072779;28;20423;-80
2023/09/06 03:14:47;;;;;;;4.22;3.83;;;;;;;21.16;54.69;100586.13;5072356;28;20439;-80
2023/09/06 03:17:22;;;;;;;3.70;3.40;;;;;;;21.16;54.65;100592.47;5074696;28;20404;-80
2023/09/06 03:19:53;;;;;;;5.55;3.65;;;;;;;21.13;54.59;100592.28;5067571;28;20388;-80
2023/09/06 03:22:20;;;;;;;4.20;3.90;;;;;;;21.11;54.80;100589.00;5071463;28;20401;-80
2023/09/06 03:24:45;;;;;;;5.30;3.75;;;;;;;21.09;54.98;100592.06;5073427;28;20445;-80
2023/09/06 03:27:15;;;;;;;4.45;4.05;;;;;;;21.08;54.89;100584.91;5073433;28;20899;-80
2023/09/06 03:29:42;;;;;;;4.90;4.05;;;;;;;21.09;54.87;100582.97;5077114;28;20882;-81
2023/09/06 03:32:08;;;;;;;4.40;3.78;;;;;;;21.07;54.73;100588.81;5070519;28;20495;-80
2023/09/06 03:34:37;;;;;;;4.65;4.00;;;;;;;21.07;54.62;100582.47;5071447;28;20483;-80
2023/09/06 03:37:04;;;;;;;4.22;3.92;;;;;;;21.04;54.60;100577.59;5071083;28;20415;-80
2023/09/06 03:39:37;;;;;;;3.63;3.33;;;;;;;21.04;54.48;100581.13;5072908;28;20786;-81
2023/09/06 03:42:08;;;;;;;4.33;3.77;;;;;;;21.07;54.34;100568.69;5073492;28;20471;-80
2023/09/06 03:44:34;;;;;;;4.97;3.60;;;;;;;21.03;54.21;100576.75;5075903;28;20418;-81
2023/09/06 03:46:59;;;;;;;4.28;3.53;;;;;;;21.03;54.16;100571.25;5076106;28;20399;-81
2023/09/06 03:49:26;;;;;;;4.93;3.57;;;;;;;21.05;53.97;100573.69;5076471;28;20439;-81
2023/09/06 03:51:52;;;;;;;7.00;3.70;;;;;;;21.03;54.02;100576.75;5073038;28;20406;-81
2023/09/06 03:54:18;;;;;;;4.40;4.00;;;;;;;21.05;54.24;100577.25;5070500;28;20411;-80
2023/09/06 03:56:43;;;;;;;4.07;3.67;;;;;;;21.05;54.19;100579.19;5069031;28;20442;-80
2023/09/06 03:59:09;;;;;;;4.07;3.67;;;;;;;21.02;54.25;100575.13;5070147;28;20820;-80
2023/09/06 04:01:34;;;;;;;3.90;3.63;;;;;;;20.99;54.19;100585.94;5076750;28;20410;-80
2023/09/06 04:04:00;;;;;;;4.60;4.20;;;;;;;20.98;54.36;100581.56;5070365;28;20411;-80
2023/09/06 04:06:28;;;;;;;4.15;3.80;;;;;;;20.99;54.20;100592.28;5073362;28;20806;-80
2023/09/06 04:08:54;;;;;;;3.83;3.53;;;;;;;20.98;54.38;100590.66;5072381;28;20397;-80
2023/09/06 04:11:19;;;;;;;4.30;3.60;;;;;;;20.95;54.45;100584.94;5070397;28;20391;-80
2023/09/06 04:13:45;;;;;;;4.23;3.93;;;;;;;20.91;54.51;100587.50;5082856;28;20429;-80
2023/09/06 04:16:10;;;;;;;3.93;3.60;;;;;;;20.88;54.47;100581.81;5070885;28;20402;-81
2023/09/06 04:18:35;;;;;;;8.05;4.05;;;;;;;20.82;54.31;100578.34;5076809;28;20433;-80
2023/09/06 04:21:07;;;;;;;14.37;4.23;;;;;;;20.75;54.18;100580.69;5075067;28;20404;-81
2023/09/06 04:23:33;;;;;;;7.45;4.07;;;;;;;20.74;54.23;100586.53;5072420;28;20446;-81
2023/09/06 04:26:00;;;;;;;4.27;3.77;;;;;;;20.69;54.06;100585.53;5072063;28;20443;-81
2023/09/06 04:28:25;;;;;;;4.18;3.80;;;;;;;20.73;53.99;100588.47;5071972;28;20402;-81
2023/09/06 04:30:51;;;;;;;4.25;3.95;;;;;;;20.76;53.90;100593.34;5075732;28;20469;-81
2023/09/06 04:33:16;;;;;;;4.57;4.20;;;;;;;20.78;54.13;100601.31;5071892;28;20476;-80
2023/09/06 04:35:44;;;;;;;3.60;3.33;;;;;;;20.77;53.57;100596.94;5072215;28;20775;-81
2023/09/06 04:38:14;;;;;;;4.90;3.60;;;;;;;20.80;54.21;100596.31;5075227;28;20451;-81
2023/09/06 04:40:41;;;;;;;4.50;3.65;;;;;;;20.81;54.08;100589.69;5067251;28;20485;-80
2023/09/06 04:43:07;;;;;;;6.32;4.32;;;;;;;20.82;54.03;100603.13;5073734;28;20943;-81
2023/09/06 04:45:33;;;;;;;5.47;3.95;;;;;;;20.81;54.08;100603.47;5071438;28;20494;-81
2023/09/06 04:47:59;;;;;;;5.63;4.53;;;;;;;20.80;54.15;100599.06;5071680;28;20833;-80
2023/09/06 04:50:24;;;;;;;4.93;4.03;;;;;;;20.77;53.97;100596.94;5071898;28;20487;-80
2023/09/06 04:52:53;;;;;;;6.40;3.87;;;;;;;20.74;54.21;100595.63;5069691;28;20453;-80
2023/09/06 04:55:23;;;;;;;6.82;4.18;;;;;;;20.69;54.11;100602.03;5075233;28;20413;-80
2023/09/06 04:57:49;;;;;;;6.85;4.38;;;;;;;20.64;54.31;100599.41;5068572;28;20395;-80
2023/09/06 05:00:17;;;;;;;4.88;4.15;;;;;;;20.59;54.52;100599.50;5070944;28;20401;-80
2023/09/06 05:02:47;;;;;;;5.70;4.20;;;;;;;20.56;54.63;100605.63;5102652;28;20392;-81
2023/09/06 05:05:16;;;;;;;4.97;4.07;;;;;;;20.54;54.65;100602.38;5069900;28;20411;-80
2023/09/06 05:07:41;;;;;;;5.40;4.05;;;;;;;20.54;54.89;100607.88;5070594;28;20597;-80
2023/09/06 05:10:09;;;;;;;5.22;4.22;;;;;;;20.53;54.82;100614.50;5068941;28;20871;-80
2023/09/06 05:12:34;;;;;;;4.07;3.63;;;;;;;20.48;54.80;100619.31;5070289;28;20388;-80
2023/09/06 05:15:00;;;;;;;4.63;4.05;;;;;;;20.46;55.06;100625.09;5069469;28;20469;-80
2023/09/06 05:17:26;;;;;;;4.55;4.15;;;;;;;20.45;55.21;100626.22;5070009;28;20875;-80
2023/09/06 05:19:54;;;;;;;5.50;4.50;;;;;;;20.45;55.15;100628.19;5070817;28;20407;-80
2023/09/06 05:22:22;;;;;;;4.80;4.30;;;;;;;20.43;55.36;100631.22;5071743;28;20487;-80
2023/09/06 05:24:49;;;;;;;5.43;4.57;;;;;;;20.44;55.12;100637.56;5067943;28;20407;-80
2023/09/06 05:27:14;;;;;;;5.25;4.10;;;;;;;20.42;55.48;100648.03;5070673;28;20473;-81
2023/09/06 05:29:39;;;;;;;5.25;4.22;;;;;;;20.43;55.27;100641.41;5069511;28;20402;-81
2023/09/06 05:32:05;;;;;;;5.60;4.20;;;;;;;20.44;55.32;100643.06;5082226;28;20887;-81
2023/09/06 05:34:30;;;;;;;6.07;4.47;;;;;;;20.46;55.41;100638.06;5066931;28;20423;-82
2023/09/06 05:36:56;;;;;;;6.90;4.40;;;;;;;20.48;55.38;100639.38;5101079;28;20406;-80
2023/09/06 05:39:21;;;;;;;5.38;4.70;;;;;;;20.49;55.27;100652.03;5070595;28;20794;-81
2023/09/06 05:41:48;;;;;;;4.43;4.03;;;;;;;20.46;55.54;100654.56;5070186;28;20955;-80
2023/09/06 05:44:13;;;;;;;5.07;4.38;;;;;;;20.42;55.52;100659.03;5074437;28;20396;-80
2023/09/06 05:46:38;;;;;;;4.93;4.20;;;;;;;20.41;55.77;100674.78;5071008;28;20461;-80
2023/09/06 05:49:05;;;;;;;7.90;4.60;;;;;;;20.41;55.98;100673.97;5069972;28;20487;-82
2023/09/06 05:51:31;;;;;;;4.70;4.28;;;;;;;20.39;55.85;100673.44;5068074;28;20438;-82
2023/09/06 05:53:56;;;;;;;5.70;3.97;;;;;;;20.46;55.58;100668.34;5069390;28;20418;-83
2023/09/06 05:56:21;;;;;;;4.87;4.37;;;;;;;20.45;55.58;100670.28;5071409;28;21045;-80
2023/09/06 05:58:47;;;;;;;4.78;4.38;;;;;;;20.44;55.88;100676.91;5075298;28;20487;-81
2023/09/06 06:01:15;;;;;;;8.07;4.83;;;;;;;20.41;56.29;100674.78;5073990;28;20391;-81
2023/09/06 06:03:43;;;;;;;6.50;4.47;;;;;;;20.39;56.29;100671.50;5076695;28;20911;-80
2023/09/06 06:06:10;;;;;;;8.32;4.88;;;;;;;20.39;56.57;100678.94;5110860;27;20982;-81
2023/09/06 06:08:37;;;;;;;6.30;4.25;;;;;;;20.37;56.77;100676.50;5073164;28;20475;-82
2023/09/06 06:11:03;;;;;;;8.38;4.95;;;;;;;20.37;56.95;100671.00;5072294;28;20395;-81
2023/09/06 06:13:28;;;;;;;9.63;4.50;;;;;;;20.39;57.29;100676.19;5071696;28;20403;-84
2023/09/06 06:15:53;;;;;;;6.17;4.53;;;;;;;20.40;57.14;100680.56;5073001;28;20406;-84
2023/09/06 06:18:19;;;;;;;6.73;4.40;;;;;;;20.39;57.05;100674.25;5076260;28;20746;-83
2023/09/06 06:20:44;;;;;;;4.80;4.40;;;;;;;20.43;57.28;100674.44;5073326;28;20410;-84
2023/09/06 06:23:09;;;;;;;5.78;4.40;;;;;;;20.46;56.18;100671.09;5073815;28;20398;-80
2023/09/06 06:25:36;;;;;;;5.30;4.50;;;;;;;20.45;55.93;100672.22;5067533;28;20409;-82
2023/09/06 06:28:01;;;;;;;5.03;4.00;;;;;;;20.51;56.25;100679.25;5071918;28;20396;-80
2023/09/06 06:30:26;;;;;;;5.77;4.03;;;;;;;20.55;56.13;100672.81;5071547;28;20411;-82
2023/09/06 06:32:51;;;;;;;6.87;4.00;;;;;;;20.55;55.72;100685.78;5071672;28;20824;-81
2023/09/06 06:35:18;;;;;;;4.97;3.97;;;;;;;20.53;54.99;100688.03;5072052;28;20512;-81
2023/09/06 06:37:43;;;;;;;8.87;4.30;;;;;;;20.54;55.19;100690.47;5073007;28;20941;-84
2023/09/06 06:40:09;;;;;;;7.50;3.85;;;;;;;20.58;55.52;100693.44;5072170;28;20569;-81
2023/09/06 06:42:34;;;;;;;5.00;4.50;;;;;;;20.64;55.35;100701.31;5071729;28;20437;-81
2023/09/06 06:45:02;;;;;;;4.40;4.00;;;;;;;20.69;55.55;100692.91;5072978;28;20882;-81
2023/09/06 06:47:27;;;;;;;5.18;3.83;;;;;;;20.72;55.80;100699.75;5067897;28;20840;-82
2023/09/06 06:49:54;;;;;;;8.77;4.47;;;;;;;20.74;55.97;100704.97;5060912;28;20406;-81
2023/09/06 06:52:20;;;;;;;7.27;4.63;;;;;;;20.76;55.36;100703.53;5066015;28;20858;-80
2023/09/06 06:54:46;;;;;;;5.97;4.10;;;;;;;20.81;55.47;100711.72;5068766;28;20427;-81
2023/09/06 06:57:11;;;;;;;6.88;4.30;;;;;;;20.84;55.70;100710.28;5070068;28;20837;-80
2023/09/06 06:59:36;;;;;;;5.27;4.10;;;;;;;20.82;55.76;100710.56;5069752;28;20938;-81
2023/09/06 07:02:02;;;;;;;5.43;4.03;;;;;;;20.86;56.15;100705.25;5068227;28;20399;-80
2023/09/06 07:04:27;;;;;;;4.38;3.97;;;;;;;20.90;56.21;100706.28;5068621;28;20413;-81
2023/09/06 07:06:53;;;;;;;4.37;4.07;;;;;;;20.92;56.29;100715.03;5068829;28;20402;-82
2023/09/06 07:09:18;;;;;;;5.63;4.00;;;;;;;20.96;56.16;100705.03;5070294;28;20406;-81
2023/09/06 07:11:44;;;;;;;7.38;4.13;;;;;;;21.01;56.32;100707.72;5108157;27;20398;-81
2023/09/06 07:14:09;;;;;;;4.37;3.60;;;;;;;21.05;55.60;100705.94;5084757;28;20417;-84
2023/09/06 07:16:35;;;;;;;5.33;4.33;;;;;;;21.07;56.13;100709.22;5080906;28;20548;-83
2023/09/06 07:19:00;;;;;;;8.23;3.63;;;;;;;21.09;56.13;100704.22;5092763;28;20393;-83
2023/09/06 07:21:26;;;;;;;7.90;3.87;;;;;;;21.12;56.19;100701.69;5063588;28;20527;-83
2023/09/06 07:23:51;;;;;;;4.60;3.70;;;;;;;21.16;56.39;100699.13;5069901;28;20399;-85
2023/09/06 07:26:17;;;;;;;9.90;4.45;;;;;;;21.18;56.66;100694.13;5072036;28;21017;-82
2023/09/06 07:28:45;;;;;;;4.53;3.87;;;;;;;20.99;56.87;100696.16;5074272;28;21065;-84
2023/09/06 07:31:12;;;;;;;4.47;3.58;;;;;;;20.98;56.90;100700.03;5072912;28;20395;-83
2023/09/06 07:33:38;;;;;;;4.50;3.60;;;;;;;21.03;56.63;100708.19;5059316;28;20956;-83
2023/09/06 07:36:04;;;;;;;5.90;3.20;;;;;;;21.05;55.99;100704.00;5055091;28;20400;-83
2023/09/06 07:38:29;;;;;;;8.25;3.53;;;;;;;21.04;55.90;100702.38;5052129;28;20914;-84
2023/09/06 07:41:06;;;;;;;19.80;4.10;;;;;;;21.04;55.86;100705.13;5054607;28;20813;-84
2023/09/06 07:43:32;;;;;;;4.00;3.53;;;;;;;21.03;55.28;100702.69;5061986;28;20797;-84
2023/09/06 07:46:01;;;;;;;11.93;3.87;;;;;;;21.13;55.65;100714.34;5056393;28;20419;-83
2023/09/06 07:48:30;;;;;;;5.30;3.38;;;;;;;21.17;55.47;100715.34;5052650;28;20424;-84
2023/09/06 07:50:58;;;;;;;5.18;3.30;;;;;;;21.10;55.69;100714.16;5053643;28;20406;-83
2023/09/06 07:53:26;;;;;;;11.40;4.05;;;;;;;21.18;55.47;100716.16;5057931;28;20434;-85
2023/09/06 07:55:52;;;;;;;7.47;4.15;;;;;;;21.33;55.24;100717.78;5060285;28;20406;-86
2023/09/06 07:58:18;;;;;;;37.00;6.27;;;;;;;21.32;55.42;100719.72;5063856;28;20397;-85
2023/09/06 08:00:43;;;;;;;20.35;4.45;;;;;;;21.37;55.61;100721.56;5054247;28;20891;-85
2023/09/06 08:03:12;;;;;;;4.70;3.43;;;;;;;21.31;55.65;100715.31;5060276;28;20423;-86
2023/09/06 08:05:37;;;;;;;6.50;3.63;;;;;;;21.46;55.48;100723.25;5058347;28;20412;-88
2023/09/06 08:08:06;;;;;;;5.50;3.97;;;;;;;21.56;54.52;100725.78;5054858;28;20407;-87
2023/09/06 08:10:31;;;;;;;4.55;3.58;;;;;;;21.63;54.90;100717.91;5059961;28;20411;-87
2023/09/06 08:12:57;;;;;;;7.90;4.33;;;;;;;21.65;54.46;100721.16;5053018;28;21050;-87
2023/09/06 08:15:23;;;;;;;4.97;3.72;;;;;;;21.69;54.44;100722.16;5052895;28;20463;-88
2023/09/06 08:17:48;;;;;;;13.80;5.07;;;;;;;21.74;54.41;100724.78;5064527;28;20422;-88
2023/09/06 08:20:15;;;;;;;7.87;4.10;;;;;;;21.78;54.20;100727.75;5058230;28;20408;-88
2023/09/06 08:22:42;;;;;;;4.95;3.92;;;;;;;21.86;54.21;100726.19;5056238;28;20412;-86
2023/09/06 08:25:07;;;;;;;8.52;4.00;;;;;;;21.93;54.10;100718.31;5053801;28;20461;-87
2023/09/06 08:27:33;;;;;;;17.02;6.50;;;;;;;22.00;53.83;100727.75;5061702;28;20777;-86
2023/09/06 08:29:59;;;;;;;9.23;5.20;;;;;;;22.05;53.91;100727.66;5068446;28;20439;-88
2023/09/06 08:32:24;;;;;;;6.93;4.57;;;;;;;22.10;53.69;100723.94;5063235;28;20479;-86
2023/09/06 08:34:49;;;;;;;11.13;5.00;;;;;;;22.15;53.45;100732.09;5065465;28;20506;-86
2023/09/06 08:37:15;;;;;;;9.23;4.53;;;;;;;22.17;53.27;100724.28;5060639;28;20408;-87
2023/09/06 08:39:40;;;;;;;5.80;4.23;;;;;;;22.26;53.53;100727.13;5071385;28;20438;-85
2023/09/06 08:42:07;;;;;;;6.43;4.20;;;;;;;22.32;53.37;100723.09;5063630;28;20440;-85
2023/09/06 08:44:35;;;;;;;7.27;4.33;;;;;;;22.34;53.64;100718.88;5062915;28;20744;-86
2023/09/06 08:47:05;;;;;;;7.15;4.60;;;;;;;22.40;53.43;100728.66;5063341;28;20960;-86
2023/09/06 08:49:31;;;;;;;7.95;4.03;;;;;;;22.51;53.22;100715.41;5059904;28;20871;-86
2023/09/06 08:52:00;;;;;;;4.25;3.92;;;;;;;22.62;53.16;100723.06;5073606;28;20411;-90
2023/09/06 08:54:27;;;;;;;6.60;4.15;;;;;;;22.77;53.10;100724.63;5056786;28;20491;-86
2023/09/06 08:56:53;;;;;;;366.80;29.60;;;;;;;22.93;52.81;100727.75;5077014;28;20495;-86
2023/09/06 08:59:20;;;;;;;11.57;4.23;;;;;;;23.06;52.43;100726.81;5059500;28;20506;-89
2023/09/06 09:01:45;;;;;;;6.32;4.05;;;;;;;23.16;51.87;100716.28;5059939;28;20915;-88
2023/09/06 09:04:12;;;;;;;5.97;3.88;;;;;;;23.28;51.37;100724.75;5055669;28;20415;-88
2023/09/06 09:06:42;;;;;;;7.25;3.88;;;;;;;23.41;51.34;100727.75;5055069;28;20417;-88
2023/09/06 09:09:16;;;;;;;6.53;3.92;;;;;;;23.56;51.04;100722.53;5066746;28;20453;-86
2023/09/06 09:11:44;;;;;;;4.10;3.80;;;;;;;23.68;50.56;100714.41;5094079;28;20828;-84
2023/09/06 09:14:21;;;;;;;4.03;3.63;;;;;;;23.85;50.47;100721.06;5057890;28;20804;-90
2023/09/06 09:16:57;;;;;;;4.25;3.60;;;;;;;24.10;50.31;100721.06;5069527;28;20827;-89
2023/09/06 09:19:23;;;;;;;5.65;3.50;;;;;;;24.94;48.58;100716.72;5053140;28;20412;-90
2023/09/06 09:21:50;;;;;;;5.13;3.70;;;;;;;25.96;46.41;100731.00;5059055;28;20407;-88
2023/09/06 09:24:32;;;;;;;5.03;4.20;;;;;;;26.27;45.04;100723.84;5054727;28;20415;-86
2023/09/06 09:26:58;;;;;;;5.45;4.07;;;;;;;25.97;45.21;100718.75;5056084;28;20413;-88
2023/09/06 09:29:23;;;;;;;5.07;3.40;;;;;;;25.89;46.01;100723.22;5061931;28;20461;-88
2023/09/06 09:31:49;;;;;;;6.27;4.83;;;;;;;25.96;46.25;100715.16;5061842;28;20519;-89
2023/09/06 09:34:14;;;;;;;4.37;3.77;;;;;;;25.95;46.06;100712.72;5093525;27;20445;-89
2023/09/06 09:36:40;;;;;;;6.70;3.60;;;;;;;25.92;46.24;100714.19;5059546;28;20465;-89
2023/09/06 09:39:10;;;;;;;31.70;5.28;;;;;;;26.08;46.17;100712.41;5057482;28;20409;-87
2023/09/06 09:41:41;;;;;;;34.13;5.13;;;;;;;26.26;46.22;100711.09;5061350;28;20465;-89
2023/09/06 09:44:16;;;;;;;9.93;3.90;;;;;;;26.60;45.45;100709.09;5057742;28;20417;-88
2023/09/06 09:46:43;;;;;;;7.38;3.70;;;;;;;26.77;45.35;100709.66;5058303;28;20506;-88
2023/09/06 09:49:10;;;;;;;4.40;3.97;;;;;;;27.05;44.42;100704.25;5062251;28;20515;-90
2023/09/06 09:51:36;;;;;;;7.03;3.30;;;;;;;27.17;44.48;100708.97;5072250;28;20405;-89
2023/09/06 09:54:03;;;;;;;6.83;3.30;;;;;;;27.39;43.84;100696.53;5055284;28;20449;-90
2023/09/06 09:56:31;;;;;;;7.15;3.60;;;;;;;27.52;43.56;100703.72;5060347;28;20928;-90
2023/09/06 09:58:57;;;;;;;6.53;3.80;;;;;;;27.86;43.14;100697.53;5060770;28;20409;-87
2023/09/06 10:01:22;;;;;;;6.82;3.75;;;;;;;28.48;42.07;100699.66;5060811;28;20508;-87
2023/09/06 10:03:49;;;;;;;5.50;3.70;;;;;;;28.98;40.58;100698.91;5063383;28;20464;-89
